OIBA  Abumusa Island Airport

Add Bookmark

Iran

Status IATA
Operational AEU
Latitude Longitude
25° 52' 32" N 55° 1' 58" E
25.875700 55.033001
Local (DST + 5) UTC (GMT + 4)
Oct 31, 2014 11:49 Oct 31, 2014 08:19
Sunrise-Sunset Local UTC
Begin Civil Twilight 05:32 02:02
Sunrise 05:56 02:26
Sunset 05:10 13:40
End Civil Twilight 05:33 14:03

Current Weather

METAR Observed VFR
OIBA 310800Z 06014KT CAVOK 31/21 Q1011 Fri, Oct 31, 2014 @ 08:00 UTC
(19 Minutes ago)
Visual Flight Rules
Wind Visibility Clouds Conditions
060° at 14 knots (26 kph) 10 km or more
  • Clear skies
  • No significant weather
Temperatures Readings Precipitation
Current Temp 31°C (88°F)
Dewpoint 21°C (70°F)
Heat Index 34°C (93°F)
Humidity 55%
Altimeter 29.85"Hg
Sea Level Pressure 1011mb
Field Elevation 22.97'
None Recorded

Additional weather within a 92.6km radius of OIBA

Map ICAO Location
OIBS 49.4km W (274°)
OIBL 75.7km N (344°)
OMDB 76.9km S (154°)
OMSJ 77.8km S (141°)

24 Hour Weather History

Loading
-

24 Hour Weather Graphs

Loading
-

CheckWX.com is intended as a tool to help pilots better visualize weather data. It is not intended as a substitute for an official weather briefing obtained from a Flight Service Station. CheckWX.com does not meet the FAA requirements for an official pre-flight weather briefing. Therefore, it's important that pilots still call and obtain an official FSS pre-flight weather briefing.